createdAt,value
2023-02-13T00:01:26.673Z,99.90
2023-02-13T00:03:53.931Z,99.90
2023-02-13T00:06:22.190Z,99.90
2023-02-13T00:08:50.593Z,99.90
2023-02-13T00:11:17.740Z,99.90
2023-02-13T00:13:44.856Z,99.90
2023-02-13T00:16:12.080Z,99.90
2023-02-13T00:18:39.993Z,99.90
2023-02-13T00:21:12.605Z,99.90
2023-02-13T00:23:40.477Z,99.90
2023-02-13T00:26:13.543Z,99.90
2023-02-13T00:28:43.241Z,99.90
2023-02-13T00:31:16.359Z,99.90
2023-02-13T00:33:43.916Z,99.90
2023-02-13T00:36:16.516Z,99.90
2023-02-13T00:38:44.467Z,99.90
2023-02-13T00:41:12.443Z,99.90
2023-02-13T00:43:39.661Z,99.90
2023-02-13T00:46:07.218Z,99.90
2023-02-13T00:48:35.596Z,99.90
2023-02-13T00:51:03.848Z,99.90
2023-02-13T00:53:31.446Z,99.90
2023-02-13T00:55:58.666Z,99.90
2023-02-13T00:58:26.003Z,99.90
2023-02-13T01:00:54.657Z,99.90
2023-02-13T01:03:22.721Z,99.90
2023-02-13T01:05:50.631Z,99.90
2023-02-13T01:08:18.854Z,99.90
2023-02-13T01:10:47.429Z,99.90
2023-02-13T01:13:16.271Z,99.90
2023-02-13T01:15:43.434Z,99.90
2023-02-13T01:18:13.088Z,99.90
2023-02-13T01:20:40.130Z,99.90
2023-02-13T01:23:07.269Z,99.90
2023-02-13T01:25:34.296Z,99.90
2023-02-13T01:28:01.431Z,99.90
2023-02-13T01:30:28.437Z,99.90
2023-02-13T01:32:55.495Z,99.90
2023-02-13T01:35:22.652Z,99.90
2023-02-13T01:37:49.863Z,99.90
2023-02-13T01:40:17.564Z,99.90
2023-02-13T01:42:44.886Z,99.90
2023-02-13T01:45:26.033Z,99.90
2023-02-13T01:47:58.267Z,99.90
2023-02-13T01:50:42.647Z,99.90
2023-02-13T01:53:18.876Z,99.90
2023-02-13T01:56:21.243Z,99.90
2023-02-13T01:58:52.345Z,99.90
2023-02-13T02:01:21.046Z,99.90
2023-02-13T02:04:20.150Z,99.90
2023-02-13T02:06:58.227Z,99.90
2023-02-13T02:09:29.991Z,99.90
2023-02-13T02:12:13.931Z,99.90
2023-02-13T02:14:42.226Z,99.90
2023-02-13T02:17:09.803Z,99.90
2023-02-13T02:19:54.995Z,99.90
2023-02-13T02:22:40.924Z,99.90
2023-02-13T02:25:17.316Z,99.90
2023-02-13T02:28:04.167Z,99.90
2023-02-13T02:31:02.219Z,99.90
2023-02-13T02:33:41.406Z,99.90
2023-02-13T02:36:17.667Z,99.90
2023-02-13T02:38:53.423Z,99.90
2023-02-13T02:41:49.325Z,99.90
2023-02-13T02:44:31.546Z,99.90
2023-02-13T02:47:29.065Z,99.90
2023-02-13T02:50:13.116Z,99.90
2023-02-13T02:52:49.052Z,99.90
2023-02-13T02:55:31.880Z,99.90
2023-02-13T02:58:42.871Z,99.90
2023-02-13T03:01:35.620Z,99.90
2023-02-13T03:04:22.547Z,99.90
2023-02-13T03:06:58.071Z,99.90
2023-02-13T03:09:48.412Z,99.90
2023-02-13T03:12:39.218Z,99.90
2023-02-13T03:15:07.132Z,99.90
2023-02-13T03:17:53.271Z,99.90
2023-02-13T03:20:55.734Z,99.90
2023-02-13T03:23:29.034Z,99.90
2023-02-13T03:26:14.556Z,99.90
2023-02-13T03:29:30.477Z,99.90
2023-02-13T03:32:23.104Z,99.90
2023-02-13T03:35:28.049Z,99.90
2023-02-13T03:38:00.730Z,99.90
2023-02-13T03:40:30.733Z,99.90
2023-02-13T03:43:10.625Z,99.90
2023-02-13T03:45:53.376Z,99.90
2023-02-13T03:48:52.739Z,99.90
2023-02-13T03:51:31.380Z,99.90
2023-02-13T03:54:03.923Z,99.90
2023-02-13T03:56:52.590Z,99.90
2023-02-13T03:59:26.803Z,99.90
2023-02-13T04:02:20.712Z,99.90
2023-02-13T04:05:05.221Z,99.90
2023-02-13T04:07:33.372Z,99.90
2023-02-13T04:10:07.481Z,99.90
2023-02-13T04:12:40.458Z,99.90
2023-02-13T04:15:27.771Z,99.90
2023-02-13T04:18:20.680Z,99.90
2023-02-13T04:20:48.014Z,99.90
2023-02-13T04:23:16.464Z,99.90
2023-02-13T04:25:47.210Z,99.90
2023-02-13T04:28:14.480Z,99.90
2023-02-13T04:30:42.032Z,99.90
2023-02-13T04:33:09.291Z,99.90
2023-02-13T04:35:36.428Z,99.90
2023-02-13T04:38:03.656Z,99.90
2023-02-13T04:40:30.689Z,99.90
2023-02-13T04:42:57.748Z,99.90
2023-02-13T04:45:25.119Z,99.90
2023-02-13T04:47:57.679Z,99.90
2023-02-13T04:50:26.234Z,99.90
2023-02-13T04:52:57.454Z,99.90
2023-02-13T04:55:25.960Z,99.90
2023-02-13T04:57:54.240Z,99.90
2023-02-13T05:00:26.384Z,99.90
2023-02-13T05:02:53.453Z,99.90
2023-02-13T05:05:20.922Z,99.90
2023-02-13T05:07:48.069Z,99.90
2023-02-13T05:10:15.142Z,99.90
2023-02-13T05:12:42.252Z,99.90
2023-02-13T05:15:09.951Z,99.90
2023-02-13T05:17:37.086Z,99.90
2023-02-13T05:20:04.344Z,99.90
2023-02-13T05:22:49.884Z,99.90
2023-02-13T05:25:17.016Z,99.90
2023-02-13T05:27:44.067Z,99.90
2023-02-13T05:30:11.918Z,99.90
2023-02-13T05:32:39.410Z,99.90
2023-02-13T05:35:06.718Z,99.90
2023-02-13T05:37:33.726Z,99.90
2023-02-13T05:40:00.839Z,99.90
2023-02-13T05:42:27.856Z,99.90
2023-02-13T05:44:54.942Z,99.90
2023-02-13T05:47:22.031Z,99.90
2023-02-13T05:49:49.167Z,99.90
2023-02-13T05:52:16.780Z,99.90
2023-02-13T05:54:43.830Z,99.90
2023-02-13T05:57:10.817Z,99.90
2023-02-13T05:59:37.887Z,99.90
2023-02-13T06:02:04.982Z,99.90
2023-02-13T06:04:32.126Z,99.90
2023-02-13T06:06:59.195Z,99.90
2023-02-13T06:09:26.216Z,99.90
2023-02-13T06:11:53.398Z,99.90
2023-02-13T06:14:20.496Z,99.90
2023-02-13T06:16:47.611Z,99.90
2023-02-13T06:19:14.756Z,99.90
2023-02-13T06:21:41.894Z,99.90
2023-02-13T06:24:09.031Z,99.90
2023-02-13T06:26:36.059Z,99.90
2023-02-13T06:29:05.156Z,99.90
2023-02-13T06:31:33.007Z,99.90
2023-02-13T06:34:00.092Z,99.90
2023-02-13T06:36:27.196Z,99.90
2023-02-13T06:38:54.227Z,99.90
2023-02-13T06:41:21.330Z,99.90
2023-02-13T06:43:48.404Z,99.90
2023-02-13T06:46:15.781Z,99.90
2023-02-13T06:48:43.022Z,99.90
2023-02-13T06:51:10.168Z,99.90
2023-02-13T06:53:37.245Z,99.90
2023-02-13T06:56:08.520Z,99.90
2023-02-13T06:58:35.781Z,99.90
2023-02-13T07:01:02.970Z,99.90
2023-02-13T07:03:30.120Z,99.90
2023-02-13T07:06:00.319Z,99.90
2023-02-13T07:08:27.950Z,99.90
2023-02-13T07:10:59.456Z,99.90
2023-02-13T07:13:26.851Z,99.90
2023-02-13T07:16:00.574Z,99.90
2023-02-13T07:18:28.069Z,99.90
2023-02-13T07:20:55.575Z,99.90
2023-02-13T07:23:22.716Z,99.90
2023-02-13T07:25:49.772Z,99.90
2023-02-13T07:28:16.861Z,99.90
2023-02-13T07:30:43.971Z,99.90
2023-02-13T07:33:12.788Z,99.90
2023-02-13T07:35:46.213Z,99.90
2023-02-13T07:38:13.269Z,99.90
2023-02-13T07:40:40.401Z,99.90
2023-02-13T07:43:07.517Z,99.90
2023-02-13T07:45:34.593Z,99.90
2023-02-13T07:48:01.653Z,99.90
2023-02-13T07:50:29.453Z,99.90
2023-02-13T07:52:58.255Z,99.90
2023-02-13T07:55:25.731Z,99.90
2023-02-13T07:57:53.509Z,99.90
2023-02-13T08:00:22.002Z,99.90
2023-02-13T08:02:49.114Z,99.90
2023-02-13T08:05:16.242Z,99.90
2023-02-13T08:07:43.357Z,99.90
2023-02-13T08:10:31.888Z,99.90
2023-02-13T08:12:59.403Z,99.90
2023-02-13T08:15:27.113Z,99.90
2023-02-13T08:17:54.680Z,99.90
2023-02-13T08:20:21.981Z,99.90
2023-02-13T08:22:49.255Z,99.90
2023-02-13T08:25:16.556Z,99.90
2023-02-13T08:27:43.676Z,99.90
2023-02-13T08:30:11.299Z,99.90
2023-02-13T08:32:53.123Z,99.90
2023-02-13T08:35:20.993Z,99.90
2023-02-13T08:37:48.016Z,99.90
2023-02-13T08:40:15.258Z,99.90
2023-02-13T08:42:42.395Z,99.90
2023-02-13T08:45:11.937Z,99.90
2023-02-13T08:47:40.108Z,99.90
2023-02-13T08:50:07.873Z,99.90
2023-02-13T08:52:35.335Z,99.40
2023-02-13T08:55:03.691Z,99.20
2023-02-13T08:57:31.578Z,99.00
2023-02-13T08:59:58.992Z,98.70
2023-02-13T09:02:26.173Z,97.20
2023-02-13T09:04:53.313Z,97.80
2023-02-13T09:07:20.527Z,95.80
2023-02-13T09:09:47.644Z,94.20
2023-02-13T09:12:14.729Z,93.00
2023-02-13T09:14:41.821Z,93.30
2023-02-13T09:17:09.066Z,92.70
2023-02-13T09:19:36.191Z,93.10
2023-02-13T09:22:03.305Z,92.80
2023-02-13T09:24:30.423Z,91.70
2023-02-13T09:26:57.463Z,91.60
2023-02-13T09:29:24.585Z,91.80
2023-02-13T09:31:51.950Z,90.20
2023-02-13T09:34:19.021Z,89.90
2023-02-13T09:36:46.180Z,86.60
2023-02-13T09:39:13.234Z,87.40
2023-02-13T09:41:44.207Z,84.80
2023-02-13T09:44:38.817Z,83.30
2023-02-13T09:47:10.209Z,82.80
2023-02-13T09:49:42.159Z,81.80
2023-02-13T09:52:10.128Z,80.60
2023-02-13T09:54:37.260Z,77.60
2023-02-13T09:57:14.786Z,76.90
2023-02-13T09:59:57.281Z,75.60
2023-02-13T10:02:33.738Z,73.40
2023-02-13T10:05:24.228Z,71.70
2023-02-13T10:08:16.504Z,71.60
2023-02-13T10:11:17.136Z,70.90
2023-02-13T10:13:56.195Z,69.40
2023-02-13T10:16:31.147Z,69.50
2023-02-13T10:19:43.111Z,69.30
2023-02-13T10:22:21.894Z,68.40
2023-02-13T10:24:52.203Z,68.60
2023-02-13T10:27:40.441Z,67.30
2023-02-13T10:30:17.361Z,67.10
2023-02-13T10:32:50.733Z,66.30
2023-02-13T10:35:31.515Z,65.40
2023-02-13T10:38:00.372Z,65.30
2023-02-13T10:40:40.641Z,64.60
2023-02-13T10:43:16.661Z,64.60
2023-02-13T10:46:15.947Z,63.70
2023-02-13T10:48:52.214Z,62.60
2023-02-13T10:51:36.148Z,63.20
2023-02-13T10:54:29.138Z,63.10
2023-02-13T10:57:14.996Z,62.10
2023-02-13T11:00:24.047Z,61.70
2023-02-13T11:02:51.239Z,63.20
2023-02-13T11:05:25.022Z,63.60
2023-02-13T11:07:52.100Z,62.20
2023-02-13T11:10:22.745Z,62.40
2023-02-13T11:12:50.753Z,62.80
2023-02-13T11:15:26.947Z,62.00
2023-02-13T11:18:10.569Z,62.30
2023-02-13T11:20:44.688Z,62.80
2023-02-13T11:23:32.072Z,62.40
2023-02-13T11:26:13.981Z,63.30
2023-02-13T11:29:18.540Z,63.30
2023-02-13T11:31:45.743Z,63.30
2023-02-13T11:34:26.518Z,61.90
2023-02-13T11:36:55.448Z,62.50
2023-02-13T11:39:26.602Z,63.20
2023-02-13T11:41:53.746Z,62.60
2023-02-13T11:44:31.267Z,62.60
2023-02-13T11:47:01.147Z,62.90
2023-02-13T11:49:38.894Z,62.50
2023-02-13T11:52:14.310Z,62.60
2023-02-13T11:54:43.833Z,62.40
2023-02-13T11:57:23.331Z,62.90
2023-02-13T11:59:52.972Z,61.70
2023-02-13T12:02:48.046Z,61.10
2023-02-13T12:05:22.931Z,61.30
2023-02-13T12:07:50.757Z,61.70
2023-02-13T12:10:29.960Z,61.70
2023-02-13T12:13:14.557Z,61.80
2023-02-13T12:15:43.613Z,61.60
2023-02-13T12:18:18.605Z,61.70
2023-02-13T12:21:01.153Z,60.90
2023-02-13T12:23:41.599Z,61.40
2023-02-13T12:26:22.001Z,60.50
2023-02-13T12:29:00.998Z,60.90
2023-02-13T12:31:33.229Z,60.60
2023-02-13T12:34:30.578Z,60.00
2023-02-13T12:36:58.780Z,61.30
2023-02-13T12:39:30.920Z,62.60
2023-02-13T12:42:17.251Z,60.40
2023-02-13T12:45:01.214Z,60.50
2023-02-13T12:47:48.378Z,60.60
2023-02-13T12:50:31.827Z,60.60
2023-02-13T12:53:28.387Z,60.50
2023-02-13T12:56:27.218Z,60.90
2023-02-13T12:59:14.248Z,60.20
2023-02-13T13:02:04.917Z,59.60
2023-02-13T13:04:50.366Z,59.70
2023-02-13T13:07:39.942Z,59.80
2023-02-13T13:10:21.757Z,60.10
2023-02-13T13:13:17.748Z,59.80
2023-02-13T13:15:59.947Z,59.80
2023-02-13T13:18:35.625Z,59.60
2023-02-13T13:21:16.110Z,59.50
2023-02-13T13:23:50.043Z,59.60
2023-02-13T13:26:32.158Z,59.70
2023-02-13T13:29:03.449Z,60.30
2023-02-13T13:31:32.019Z,59.80
2023-02-13T13:34:04.936Z,59.30
2023-02-13T13:36:38.450Z,59.30
2023-02-13T13:39:33.689Z,60.10
2023-02-13T13:42:11.992Z,58.90
2023-02-13T13:45:10.889Z,58.70
2023-02-13T13:47:47.521Z,58.60
2023-02-13T13:50:30.183Z,59.00
2023-02-13T13:53:10.681Z,58.50
2023-02-13T13:55:53.118Z,57.80
2023-02-13T13:58:47.392Z,57.80
2023-02-13T14:01:45.842Z,58.40
2023-02-13T14:04:40.332Z,58.20
2023-02-13T14:07:24.754Z,58.10
2023-02-13T14:09:52.152Z,57.60
2023-02-13T14:12:25.415Z,61.10
2023-02-13T14:14:53.725Z,59.10
2023-02-13T14:17:46.043Z,57.80
2023-02-13T14:20:27.374Z,57.80
2023-02-13T14:22:54.827Z,57.40
2023-02-13T14:25:28.055Z,57.60
2023-02-13T14:28:01.215Z,57.50
2023-02-13T14:30:32.912Z,57.60
2023-02-13T14:33:07.366Z,57.40
2023-02-13T14:35:37.901Z,57.30
2023-02-13T14:38:22.106Z,57.30
2023-02-13T14:40:53.291Z,56.80
2023-02-13T14:43:31.926Z,57.30
2023-02-13T14:46:18.491Z,57.50
2023-02-13T14:49:03.226Z,57.60
2023-02-13T14:51:39.119Z,58.10
2023-02-13T14:54:25.959Z,58.20
2023-02-13T14:56:58.337Z,58.10
2023-02-13T14:59:32.883Z,57.80
2023-02-13T15:02:04.444Z,58.30
2023-02-13T15:04:47.096Z,58.80
2023-02-13T15:07:23.610Z,59.60
2023-02-13T15:10:00.426Z,60.10
2023-02-13T15:12:37.480Z,61.20
2023-02-13T15:15:34.745Z,59.30
2023-02-13T15:18:10.646Z,59.70
2023-02-13T15:20:42.259Z,59.50
2023-02-13T15:23:20.998Z,59.20
2023-02-13T15:25:56.316Z,59.00
2023-02-13T15:28:25.426Z,60.20
2023-02-13T15:30:57.663Z,59.80
2023-02-13T15:33:33.812Z,59.20
2023-02-13T15:36:04.140Z,60.00
2023-02-13T15:38:40.817Z,59.60
2023-02-13T15:41:23.905Z,60.20
2023-02-13T15:43:54.570Z,60.10
2023-02-13T15:46:31.189Z,60.60
2023-02-13T15:49:06.680Z,60.00
2023-02-13T15:51:35.083Z,60.00
2023-02-13T15:54:05.186Z,60.10
2023-02-13T15:56:33.509Z,60.70
2023-02-13T15:59:01.844Z,60.70
2023-02-13T16:01:30.967Z,61.00
2023-02-13T16:04:05.609Z,62.00
2023-02-13T16:06:38.778Z,61.80
2023-02-13T16:09:06.532Z,62.40
2023-02-13T16:11:39.719Z,62.70
2023-02-13T16:14:25.387Z,62.80
2023-02-13T16:16:55.174Z,63.10
2023-02-13T16:19:39.763Z,63.50
2023-02-13T16:22:21.838Z,63.90
2023-02-13T16:24:52.448Z,64.90
2023-02-13T16:27:27.049Z,65.90
2023-02-13T16:30:07.872Z,66.80
2023-02-13T16:32:44.502Z,67.60
2023-02-13T16:35:30.700Z,68.40
2023-02-13T16:38:01.963Z,68.80
2023-02-13T16:40:31.803Z,69.50
2023-02-13T16:43:39.184Z,70.40
2023-02-13T16:46:19.286Z,70.60
2023-02-13T16:48:48.722Z,70.80
2023-02-13T16:51:22.074Z,71.90
2023-02-13T16:54:02.108Z,72.00
2023-02-13T16:56:47.314Z,72.70
2023-02-13T16:59:47.589Z,73.50
2023-02-13T17:02:23.624Z,73.90
2023-02-13T17:05:07.335Z,74.20
2023-02-13T17:07:35.681Z,74.70
2023-02-13T17:10:05.857Z,75.00
2023-02-13T17:12:39.747Z,75.60
2023-02-13T17:15:12.442Z,75.90
2023-02-13T17:17:40.086Z,76.60
2023-02-13T17:20:08.739Z,77.20
2023-02-13T17:22:42.504Z,77.70
2023-02-13T17:25:17.664Z,78.10
2023-02-13T17:27:45.278Z,79.00
2023-02-13T17:30:17.943Z,79.80
2023-02-13T17:32:46.932Z,80.80
2023-02-13T17:35:16.126Z,81.70
2023-02-13T17:37:44.603Z,82.30
2023-02-13T17:40:20.648Z,83.60
2023-02-13T17:42:58.104Z,83.50
2023-02-13T17:45:33.532Z,84.80
2023-02-13T17:48:00.883Z,86.00
2023-02-13T17:50:30.352Z,87.50
2023-02-13T17:52:58.526Z,89.40
2023-02-13T17:55:28.018Z,90.50
2023-02-13T17:57:56.799Z,91.30
2023-02-13T18:00:27.138Z,92.10
2023-02-13T18:02:55.011Z,93.40
2023-02-13T18:05:22.216Z,94.20
2023-02-13T18:07:50.550Z,95.40
2023-02-13T18:10:26.702Z,96.10
2023-02-13T18:12:56.882Z,96.90
2023-02-13T18:15:24.762Z,97.80
2023-02-13T18:17:51.838Z,98.90
2023-02-13T18:20:23.538Z,99.90
2023-02-13T18:22:51.321Z,99.90
2023-02-13T18:25:21.104Z,99.90
2023-02-13T18:27:48.711Z,99.90
2023-02-13T18:30:22.265Z,99.90
2023-02-13T18:32:55.017Z,99.90
2023-02-13T18:35:23.621Z,99.90
2023-02-13T18:37:51.254Z,99.90
2023-02-13T18:40:19.118Z,99.90
2023-02-13T18:42:46.324Z,99.90
2023-02-13T18:45:13.613Z,99.90
2023-02-13T18:47:41.017Z,99.90
2023-02-13T18:50:09.233Z,99.90
2023-02-13T18:52:36.945Z,99.90
2023-02-13T18:55:07.388Z,99.90
2023-02-13T18:57:35.147Z,99.90
2023-02-13T19:00:02.811Z,99.90
2023-02-13T19:02:32.523Z,99.90
2023-02-13T19:04:59.691Z,99.90
2023-02-13T19:07:27.488Z,99.90
2023-02-13T19:09:54.647Z,99.90
2023-02-13T19:12:21.708Z,99.90
2023-02-13T19:14:48.927Z,99.90
2023-02-13T19:17:16.148Z,99.90
2023-02-13T19:19:46.568Z,99.90
2023-02-13T19:22:13.650Z,99.90
2023-02-13T19:24:41.815Z,99.90
2023-02-13T19:27:08.863Z,99.90
2023-02-13T19:29:36.452Z,99.90
2023-02-13T19:32:03.617Z,99.90
2023-02-13T19:34:30.813Z,99.90
2023-02-13T19:36:57.908Z,99.90
2023-02-13T19:39:25.038Z,99.90
2023-02-13T19:41:52.091Z,99.90
2023-02-13T19:44:19.191Z,99.90
2023-02-13T19:46:46.379Z,99.90
2023-02-13T19:49:13.621Z,99.90
2023-02-13T19:51:42.546Z,99.90
2023-02-13T19:54:11.214Z,99.90
2023-02-13T19:56:39.895Z,99.90
2023-02-13T19:59:10.660Z,99.90
2023-02-13T20:01:38.034Z,99.90
2023-02-13T20:04:05.235Z,99.90
2023-02-13T20:06:38.738Z,99.90
2023-02-13T20:09:10.327Z,99.90
2023-02-13T20:11:37.516Z,99.90
2023-02-13T20:14:05.646Z,99.90
2023-02-13T20:16:35.549Z,99.90
2023-02-13T20:19:07.806Z,99.90
2023-02-13T20:21:35.794Z,99.90
2023-02-13T20:24:03.688Z,99.90
2023-02-13T20:26:31.268Z,99.90
2023-02-13T20:29:00.294Z,99.90
2023-02-13T20:31:29.465Z,99.90
2023-02-13T20:33:57.639Z,99.90
2023-02-13T20:36:26.959Z,99.90
2023-02-13T20:38:59.826Z,99.90
2023-02-13T20:41:29.508Z,99.90
2023-02-13T20:44:01.221Z,99.90
2023-02-13T20:46:33.008Z,99.90
2023-02-13T20:49:01.459Z,99.90
2023-02-13T20:51:30.963Z,99.90
2023-02-13T20:54:01.795Z,99.90
2023-02-13T20:56:29.730Z,99.90
2023-02-13T20:59:00.446Z,99.90
2023-02-13T21:01:30.846Z,99.90
2023-02-13T21:03:58.815Z,99.90
2023-02-13T21:06:29.790Z,99.90
2023-02-13T21:08:58.160Z,99.90
2023-02-13T21:11:28.366Z,99.90
2023-02-13T21:13:57.099Z,99.90
2023-02-13T21:16:29.168Z,99.90
2023-02-13T21:18:59.493Z,99.90
2023-02-13T21:21:29.373Z,99.90
2023-02-13T21:24:03.714Z,99.90
2023-02-13T21:26:32.536Z,99.90
2023-02-13T21:29:01.934Z,99.90
2023-02-13T21:31:32.448Z,99.90
2023-02-13T21:34:03.925Z,99.90
2023-02-13T21:36:32.999Z,99.90
2023-02-13T21:39:01.070Z,99.90
2023-02-13T21:41:28.228Z,99.90
2023-02-13T21:43:55.900Z,99.90
2023-02-13T21:46:26.106Z,99.90
2023-02-13T21:48:59.832Z,99.90
2023-02-13T21:51:29.842Z,99.90
2023-02-13T21:53:58.033Z,99.90
2023-02-13T21:56:29.235Z,99.90
2023-02-13T21:58:56.797Z,99.90
2023-02-13T22:01:29.717Z,99.90
2023-02-13T22:04:00.788Z,99.90
2023-02-13T22:06:30.675Z,99.90
2023-02-13T22:09:09.076Z,99.90
2023-02-13T22:11:37.155Z,99.90
2023-02-13T22:14:07.115Z,99.90
2023-02-13T22:16:38.811Z,99.90
2023-02-13T22:19:08.308Z,99.90
2023-02-13T22:21:36.775Z,99.90
2023-02-13T22:24:04.322Z,99.90
2023-02-13T22:26:37.321Z,99.90
2023-02-13T22:29:07.265Z,99.90
2023-02-13T22:31:38.663Z,99.90
2023-02-13T22:34:06.973Z,99.90
2023-02-13T22:36:39.377Z,99.90
2023-02-13T22:39:08.044Z,99.90
2023-02-13T22:41:35.644Z,99.90
2023-02-13T22:44:02.981Z,99.90
2023-02-13T22:46:32.056Z,99.90
2023-02-13T22:49:04.083Z,99.90
2023-02-13T22:51:36.843Z,99.90
2023-02-13T22:54:04.346Z,99.90
2023-02-13T22:56:32.121Z,99.90
2023-02-13T22:58:59.970Z,99.90
2023-02-13T23:01:28.478Z,99.90
2023-02-13T23:03:55.973Z,99.90
2023-02-13T23:06:23.893Z,99.90
2023-02-13T23:08:53.572Z,99.90
2023-02-13T23:11:42.221Z,99.90
2023-02-13T23:14:10.514Z,99.90
2023-02-13T23:16:59.882Z,99.90
2023-02-13T23:19:27.786Z,99.90
2023-02-13T23:21:55.082Z,99.90
2023-02-13T23:24:25.465Z,99.90
2023-02-13T23:26:52.582Z,99.90
2023-02-13T23:29:20.114Z,99.90
2023-02-13T23:31:47.489Z,99.90
2023-02-13T23:34:14.793Z,99.90
2023-02-13T23:36:41.916Z,99.90
2023-02-13T23:39:09.038Z,99.90
2023-02-13T23:41:36.058Z,99.90
2023-02-13T23:44:06.197Z,99.90
2023-02-13T23:46:33.390Z,99.90
2023-02-13T23:49:00.560Z,99.90
2023-02-13T23:51:27.647Z,99.90
2023-02-13T23:53:56.364Z,99.90
2023-02-13T23:56:25.033Z,99.90
2023-02-13T23:58:52.245Z,99.90
